createdAt,value
2022-07-30T07:03:11.334Z,46.3
2022-07-30T07:09:22.105Z,46.9
2022-07-30T07:15:10.501Z,47.6
2022-07-30T07:21:40.751Z,48.2
2022-07-30T07:28:10.794Z,48.9
2022-07-30T07:34:56.930Z,49.8
2022-07-30T07:40:41.034Z,50.4
2022-07-30T07:46:33.252Z,51.1
2022-07-30T07:52:20.886Z,51.8
2022-07-30T08:03:44.013Z,53.1
2022-07-30T08:10:01.098Z,53.8
2022-07-30T08:16:29.121Z,54.4
2022-07-30T08:22:12.066Z,55.1
2022-07-30T08:27:56.352Z,55.7
2022-07-30T08:34:07.847Z,56.3
2022-07-30T08:40:05.693Z,57
2022-07-30T08:45:55.204Z,57.5
2022-07-30T08:51:40.982Z,58
2022-07-30T08:57:05.814Z,58.5
2022-07-30T09:03:33.505Z,58.9
2022-07-30T09:08:58.046Z,59.4
2022-07-30T09:14:47.388Z,59.7
2022-07-30T09:20:10.157Z,60.1
2022-07-30T09:25:47.857Z,60.6
2022-07-30T09:31:25.139Z,60.9
2022-07-30T09:37:06.025Z,61.3
2022-07-30T09:43:21.435Z,61.7
2022-07-30T09:48:49.673Z,62
2022-07-30T10:04:47.751Z,63
2022-07-30T10:10:46.985Z,63.4
2022-07-30T10:16:50.683Z,63.6
2022-07-30T10:22:33.744Z,64
2022-07-30T10:30:29.256Z,64.5
2022-07-30T10:37:52.695Z,64.9
2022-07-30T10:44:04.657Z,65.3
2022-07-30T10:50:14.551Z,65.6
2022-07-30T10:56:12.573Z,65.8
2022-07-30T11:02:36.107Z,66.1
2022-07-30T11:09:05.171Z,66.1
2022-07-30T11:15:54.425Z,65.4
2022-07-30T11:22:20.069Z,65.9
2022-07-30T11:28:52.213Z,66.3
2022-07-30T11:35:35.022Z,66.6
2022-07-30T11:41:52.426Z,67.1
